Latest METARs, TAFs and NOTAMs for TTPP


---------------------------------------------------------------------------
	(OBSERVATIONS)
TTPP 241300Z 10012KT 9999 VCSH SCT016 30/25 Q1014 NOSIG RMK VCSH-
    S/SE/E/NE=
TTPP 241200Z 00000KT 9999 FEW016 BKN038 27/25 Q1014 NOSIG=
TTPP 241100Z 00000KT 9999 FEW015 24/24 Q1014 NOSIG=
---------------------------------------------------------------------------
	(TERMINAL AREA FORECAST)
TTPP 241000Z 2412/2512 10015KT 9999 SCT016 SCT038
    TEMPO 2412/2418 4000 SHRA/VCSH FEW010CB BKN016
    BECMG 2423/2501 10005KT FEW016
    PROB30
    TEMPO 2503/2506 6000 SHRA FEW010CB SCT016=
---------------------------------------------------------------------------
	(NOTAMS)


TTPP A0726/17 INSTRUMENT APPROACH PROCEDURE "NDB RWY 10" NOT
    AVBL. 24 MAY 19:00 2017 UNTIL 24 AUG 23:59 2017 ESTIMATED.
    CREATED: 24 MAY 20:42 2017

TTPP A0727/17 INSTRUMENT APPROACH PROCEDURE "NDB/ILS RWY 10"
    NOT AVBL. 24 MAY 19:30 2017 UNTIL 24 AUG 23:59 2017 ESTIMATED.
    CREATED: 24 MAY 20:42 2017

TTPP A0831/17 RWY 10/28 CLSD DUE TO RUBBER REMOVAL WORKS. 0620-
    0820, 22 JUN 06:20 2017 UNTIL 25 JUN 08:20 2017. CREATED:
    14 JUN 18:52 2017

TTPP A0860/17 GATE S12 CLSD DUE MAINT WORKS. 21 JUN 16:00 2017
    UNTIL 20 SEP 16:00 2017. CREATED: 21 JUN 16:12 2017

TTPP A0862/17 ALL ACFT TO BE TOWED IN AND TOWED OUT OF GATES
    1 AND 2 ON THE SOUTH APRON. 21 JUN 20:56 2017 UNTIL 21 SEP
    20:56 2017. CREATED: 21 JUN 21:30 2017

TTPP F0016/07 [DEFENSE ENERGY SUPPORT CENTER ADVISORY] FUEL AVAILABILITY
    NOT AVAILABLE: CONTRACTOR PLACED ON QUALITY HOLD DUE TO NONCOMPLIANCE
    OF SAMPLE SUBMISSION. 12 JUL 20:18 2020 UNTIL 01 AUG 21:18
    2020

---------------------------------------------------------------------------